Baltimore (BWI/KBWI)

Information

Location
Baltimore, MD
Local Time
22:20 / 10:20 pm
GMT Time
02:20 / 2:20 am
Gates
Unassigned
No FAA reported delays
METAR KBWI 280154Z 00000KT 10SM FEW055 BKN120 BKN250 14/13 A2994 RMK AO2 SLP137 T01440128
TAF KBWI 272340Z 2800/2906 VRB03KT P6SM BKN150 FM280600 VRB03KT 4SM BR BKN050 FM280900 VRB03KT 2SM BR BKN050 FM281200 VRB03KT 2SM BR OVC010 FM281700 18005KT P6SM -SHRA OVC080 FM282200 24006KT P6SM -SHRA OVC040 FM290000 29005KT P6SM BKN040 FM290300 32008KT 5SM BR BKN010
  • No charts available